createdAt,value
2017-12-14T00:00:02.308Z,400.83
2017-12-14T00:02:10.650Z,311.43
2017-12-14T00:04:23.452Z,280.90
2017-12-14T00:06:36.075Z,271.83
2017-12-14T00:08:46.259Z,254.10
2017-12-14T00:11:03.723Z,250.23
2017-12-14T00:13:13.606Z,232.90
2017-12-14T00:15:27.875Z,242.00
2017-12-14T00:17:35.031Z,232.23
2017-12-14T00:19:43.544Z,218.80
2017-12-14T00:21:53.594Z,211.03
2017-12-14T00:23:59.964Z,201.80
2017-12-14T00:26:11.008Z,188.40
2017-12-14T00:28:19.250Z,188.90
2017-12-14T00:30:26.776Z,177.87
2017-12-14T00:32:32.809Z,178.73
2017-12-14T00:34:39.815Z,163.70
2017-12-14T00:36:51.534Z,162.67
2017-12-14T00:41:10.616Z,149.17
2017-12-14T00:43:17.457Z,148.73
2017-12-14T00:45:24.920Z,137.13
2017-12-14T00:47:34.567Z,137.30
2017-12-14T00:49:45.388Z,129.47
2017-12-14T00:51:54.761Z,129.93
2017-12-14T00:54:04.298Z,118.57
2017-12-14T00:56:11.035Z,116.53
2017-12-14T01:00:33.472Z,105.70
2017-12-14T01:02:41.267Z,104.47
2017-12-14T01:04:51.770Z,97.27
2017-12-14T01:07:02.439Z,96.00
2017-12-14T01:09:11.493Z,92.60
2017-12-14T01:11:17.919Z,92.17
2017-12-14T01:13:25.274Z,86.97
2017-12-14T01:15:32.390Z,87.07
2017-12-14T01:17:38.992Z,78.77
2017-12-14T01:19:46.986Z,78.67
2017-12-14T01:21:55.102Z,74.87
2017-12-14T01:24:00.900Z,70.07
2017-12-14T01:26:15.639Z,68.10
2017-12-14T01:28:24.191Z,65.07
2017-12-14T01:30:32.474Z,60.00
2017-12-14T01:32:39.958Z,61.30
2017-12-14T01:34:47.201Z,57.93
2017-12-14T01:36:54.237Z,57.10
2017-12-14T01:39:00.156Z,53.07
2017-12-14T01:41:07.122Z,52.37
2017-12-14T01:43:12.537Z,49.43
2017-12-14T01:45:22.329Z,50.00
2017-12-14T01:47:31.473Z,51.33
2017-12-14T01:49:37.689Z,45.93
2017-12-14T01:51:47.278Z,44.17
2017-12-14T01:53:53.602Z,45.20
2017-12-14T01:55:59.252Z,40.80
2017-12-14T01:58:06.321Z,41.40
2017-12-14T02:00:16.874Z,35.57
2017-12-14T02:02:22.301Z,33.93
2017-12-14T02:04:28.892Z,33.43
2017-12-14T02:06:40.070Z,31.73
2017-12-14T02:08:46.145Z,31.63
2017-12-14T02:10:51.943Z,32.77
2017-12-14T02:13:00.259Z,30.00
2017-12-14T02:15:08.851Z,31.70
2017-12-14T02:17:14.536Z,29.27
2017-12-14T02:19:24.651Z,27.03
2017-12-14T02:21:33.644Z,24.27
2017-12-14T02:23:43.514Z,23.80
2017-12-14T02:25:56.447Z,22.20
2017-12-14T02:28:06.777Z,20.00
2017-12-14T02:30:14.820Z,23.10
2017-12-14T02:32:22.053Z,19.40
2017-12-14T02:34:29.167Z,19.57
2017-12-14T02:36:34.706Z,18.50
2017-12-14T02:38:42.299Z,19.93
2017-12-14T02:40:55.195Z,17.47
2017-12-14T02:43:02.387Z,15.77
2017-12-14T02:45:09.155Z,15.50
2017-12-14T02:47:19.035Z,18.03
2017-12-14T02:49:29.011Z,15.07
2017-12-14T02:51:37.785Z,15.40
2017-12-14T02:53:43.732Z,14.60
2017-12-14T02:55:50.135Z,14.73
2017-12-14T02:57:58.482Z,13.57
2017-12-14T03:00:08.351Z,15.57
2017-12-14T03:02:19.567Z,13.07
2017-12-14T03:04:27.505Z,12.50
2017-12-14T03:06:34.462Z,12.97
2017-12-14T03:08:40.490Z,12.10
2017-12-14T03:10:48.075Z,11.30
2017-12-14T03:12:56.259Z,10.40
2017-12-14T03:15:04.401Z,12.17
2017-12-14T03:17:10.327Z,13.00
2017-12-14T03:19:16.346Z,10.00
2017-12-14T03:21:22.563Z,10.17
2017-12-14T03:23:30.954Z,10.70
2017-12-14T03:25:37.460Z,9.33
2017-12-14T03:27:42.906Z,10.00
2017-12-14T03:29:48.581Z,8.90
2017-12-14T03:32:00.503Z,9.13
2017-12-14T03:34:06.179Z,8.90
2017-12-14T03:36:12.566Z,7.70
2017-12-14T03:38:18.277Z,8.90
2017-12-14T03:40:23.821Z,8.80
2017-12-14T03:42:30.265Z,8.70
2017-12-14T03:44:36.971Z,9.50
2017-12-14T03:46:42.488Z,7.53
2017-12-14T03:48:48.828Z,7.90
2017-12-14T03:50:54.480Z,7.07
2017-12-14T03:53:00.579Z,7.43
2017-12-14T03:55:06.473Z,8.47
2017-12-14T03:57:13.763Z,6.77
2017-12-14T03:59:19.311Z,6.67
2017-12-14T04:01:27.023Z,7.80
2017-12-14T04:03:39.619Z,6.33
2017-12-14T04:05:47.424Z,6.17
2017-12-14T04:07:54.001Z,6.17
2017-12-14T04:10:06.656Z,6.40
2017-12-14T04:12:17.723Z,5.30
2017-12-14T04:14:23.914Z,6.30
2017-12-14T04:18:42.093Z,5.97
2017-12-14T04:20:48.182Z,5.60
2017-12-14T04:22:53.958Z,5.97
2017-12-14T04:24:59.488Z,5.27
2017-12-14T04:27:07.735Z,5.17
2017-12-14T04:29:15.998Z,6.13
2017-12-14T04:31:25.547Z,4.83
2017-12-14T04:33:33.702Z,4.10
2017-12-14T04:35:39.338Z,4.63
2017-12-14T04:37:45.665Z,4.17
2017-12-14T04:39:52.019Z,3.93
2017-12-14T04:41:57.804Z,4.43
2017-12-14T04:44:03.421Z,4.20
2017-12-14T04:46:09.366Z,4.33
2017-12-14T04:48:15.318Z,4.90
2017-12-14T04:50:22.284Z,4.50
2017-12-14T04:52:28.749Z,4.43
2017-12-14T04:54:34.331Z,4.40
2017-12-14T04:56:43.405Z,4.10
2017-12-14T04:58:49.857Z,3.53
2017-12-14T05:00:55.826Z,3.63
2017-12-14T05:03:01.772Z,3.70
2017-12-14T05:05:08.212Z,3.67
2017-12-14T05:07:14.234Z,3.47
2017-12-14T05:09:22.851Z,4.03
2017-12-14T05:11:28.667Z,3.97
2017-12-14T05:13:36.415Z,3.77
2017-12-14T05:15:42.084Z,3.20
2017-12-14T05:17:50.329Z,3.93
2017-12-14T05:19:56.764Z,3.13
2017-12-14T05:22:02.916Z,2.77
2017-12-14T05:24:10.078Z,3.30
2017-12-14T05:26:15.984Z,3.30
2017-12-14T05:28:21.981Z,2.80
2017-12-14T05:30:29.768Z,3.67
2017-12-14T05:32:37.147Z,3.00
2017-12-14T05:34:43.631Z,3.10
2017-12-14T05:36:49.553Z,3.20
2017-12-14T05:38:55.947Z,2.60
2017-12-14T05:41:01.702Z,2.60
2017-12-14T05:43:08.565Z,2.50
2017-12-14T05:45:14.014Z,2.30
2017-12-14T05:47:22.175Z,2.40
2017-12-14T05:49:34.170Z,2.60
2017-12-14T05:51:42.954Z,2.20
2017-12-14T05:53:49.184Z,2.47
2017-12-14T05:55:58.272Z,1.83
2017-12-14T06:00:21.558Z,2.10
2017-12-14T06:02:30.389Z,2.03
2017-12-14T06:04:36.570Z,1.80
2017-12-14T06:06:49.956Z,2.03
2017-12-14T06:11:07.762Z,1.90
2017-12-14T06:13:20.303Z,1.73
2017-12-14T06:15:31.587Z,1.53
2017-12-14T06:20:13.465Z,1.30
2017-12-14T06:22:33.755Z,1.40
2017-12-14T06:24:44.180Z,1.60
2017-12-14T06:26:58.568Z,1.50
2017-12-14T06:29:09.697Z,14.20
2017-12-14T06:31:16.912Z,50.70
2017-12-14T06:33:22.823Z,212.47
2017-12-14T06:35:29.020Z,397.63
2017-12-14T06:37:47.971Z,468.83
2017-12-14T06:39:54.166Z,417.07
2017-12-14T06:42:01.122Z,428.10
2017-12-14T06:44:11.402Z,390.37
2017-12-14T06:46:18.869Z,334.70
2017-12-14T06:48:27.786Z,306.10
2017-12-14T06:50:34.520Z,551.37
2017-12-14T06:52:42.306Z,454.33
2017-12-14T06:54:50.894Z,652.77
2017-12-14T06:56:59.053Z,598.00
2017-12-14T06:59:07.459Z,531.70
2017-12-14T07:01:17.423Z,504.23
2017-12-14T07:03:30.771Z,503.60
2017-12-14T07:05:47.324Z,742.73
2017-12-14T07:07:56.552Z,755.83
2017-12-14T07:10:03.598Z,595.17
2017-12-14T07:12:12.442Z,549.70
2017-12-14T07:14:18.694Z,494.90
2017-12-14T07:16:24.879Z,468.50
2017-12-14T07:18:30.701Z,453.23
2017-12-14T07:20:40.169Z,429.33
2017-12-14T07:22:49.419Z,392.63
2017-12-14T07:24:56.311Z,361.80
2017-12-14T07:27:02.305Z,338.87
2017-12-14T07:29:13.387Z,314.97
2017-12-14T07:31:21.626Z,285.37
2017-12-14T07:33:32.114Z,252.27
2017-12-14T07:35:41.355Z,880.40
2017-12-14T07:37:55.176Z,756.63
2017-12-14T07:40:05.917Z,744.03
2017-12-14T07:42:20.240Z,542.43
2017-12-14T07:44:31.599Z,509.77
2017-12-14T07:46:42.716Z,478.27
2017-12-14T07:49:02.674Z,478.80
2017-12-14T07:51:18.232Z,428.47
2017-12-14T07:53:26.713Z,416.30
2017-12-14T07:58:23.848Z,625.73
2017-12-14T08:00:41.200Z,653.23
2017-12-14T08:02:49.243Z,580.13
2017-12-14T08:05:00.259Z,510.10
2017-12-14T08:07:10.166Z,509.20
2017-12-14T08:09:21.743Z,487.43
2017-12-14T08:11:29.296Z,471.13
2017-12-14T08:13:43.502Z,438.40
2017-12-14T08:15:57.883Z,408.40
2017-12-14T08:18:06.955Z,379.07
2017-12-14T08:20:14.370Z,346.17
2017-12-14T08:22:23.291Z,330.17
2017-12-14T08:24:34.400Z,295.63
2017-12-14T08:26:46.396Z,273.93
2017-12-14T08:28:54.571Z,258.27
2017-12-14T08:31:00.292Z,236.00
2017-12-14T08:33:07.684Z,213.40
2017-12-14T08:35:26.862Z,295.90
2017-12-14T08:37:36.395Z,563.00
2017-12-14T08:39:45.642Z,489.13
2017-12-14T08:41:55.715Z,356.80
2017-12-14T08:44:04.555Z,463.70
2017-12-14T08:46:12.628Z,555.10
2017-12-14T08:48:20.420Z,648.93
2017-12-14T08:50:31.534Z,673.83
2017-12-14T08:52:41.104Z,573.90
2017-12-14T08:54:51.243Z,539.77
2017-12-14T08:56:58.079Z,512.30
2017-12-14T08:59:10.285Z,497.00
2017-12-14T09:01:20.530Z,459.87
2017-12-14T09:03:35.401Z,442.37
2017-12-14T09:05:55.249Z,364.17
2017-12-14T09:10:21.072Z,309.27
2017-12-14T09:12:32.555Z,273.80
2017-12-14T09:14:46.995Z,248.63
2017-12-14T09:19:28.408Z,184.10
2017-12-14T09:21:40.768Z,163.33
2017-12-14T09:23:51.782Z,148.30
2017-12-14T09:25:59.884Z,127.23
2017-12-14T09:28:11.603Z,111.23
2017-12-14T09:30:19.110Z,92.87
2017-12-14T09:32:25.524Z,81.00
2017-12-14T09:34:33.549Z,304.63
2017-12-14T09:36:45.148Z,339.77
2017-12-14T09:38:54.871Z,472.10
2017-12-14T09:41:00.648Z,396.73
2017-12-14T09:43:19.967Z,346.97
2017-12-14T09:45:35.630Z,301.90
2017-12-14T09:47:54.315Z,261.30
2017-12-14T09:50:06.848Z,223.40
2017-12-14T09:52:15.853Z,193.83
2017-12-14T09:56:50.966Z,129.07
2017-12-14T09:58:59.347Z,106.90
2017-12-14T10:01:17.818Z,98.00
2017-12-14T10:03:33.619Z,89.97
2017-12-14T10:06:09.399Z,72.03
2017-12-14T10:08:21.241Z,575.17
2017-12-14T10:10:36.069Z,323.57
2017-12-14T10:12:51.864Z,251.93
2017-12-14T10:15:04.017Z,430.63
2017-12-14T10:17:19.281Z,484.70
2017-12-14T10:19:33.812Z,386.77
2017-12-14T10:21:49.483Z,363.93
2017-12-14T10:24:02.415Z,293.90
2017-12-14T10:26:13.667Z,256.17
2017-12-14T10:28:37.989Z,232.50
2017-12-14T10:30:58.439Z,190.03
2017-12-14T10:33:14.643Z,166.87
2017-12-14T10:35:37.364Z,127.20
2017-12-14T10:38:14.299Z,122.03
2017-12-14T10:40:31.998Z,95.57
2017-12-14T10:42:43.720Z,79.23
2017-12-14T10:44:59.084Z,68.47
2017-12-14T10:47:16.824Z,60.13
2017-12-14T10:49:29.279Z,56.30
2017-12-14T10:51:46.223Z,649.90
2017-12-14T10:54:06.102Z,526.70
2017-12-14T10:56:21.204Z,588.73
2017-12-14T10:58:43.096Z,534.77
2017-12-14T11:01:04.499Z,480.87
2017-12-14T11:03:11.436Z,441.47
2017-12-14T11:05:21.933Z,391.33
2017-12-14T11:07:45.462Z,378.20
2017-12-14T11:09:56.162Z,350.63
2017-12-14T11:12:06.350Z,299.57
2017-12-14T11:14:15.364Z,393.90
2017-12-14T11:16:24.240Z,673.43
2017-12-14T11:18:47.533Z,707.63
2017-12-14T11:20:56.575Z,552.13
2017-12-14T11:23:12.708Z,521.27
2017-12-14T11:25:30.343Z,478.83
2017-12-14T11:27:40.044Z,473.20
2017-12-14T11:29:55.878Z,432.80
2017-12-14T11:32:06.736Z,419.47
2017-12-14T11:34:13.520Z,397.57
2017-12-14T11:36:22.785Z,363.73
2017-12-14T11:38:33.540Z,337.80
2017-12-14T11:40:44.431Z,306.00
2017-12-14T11:42:54.219Z,308.53
2017-12-14T11:45:18.520Z,274.27
2017-12-14T11:47:28.775Z,247.23
2017-12-14T11:49:49.124Z,222.97
2017-12-14T11:52:05.994Z,204.67
2017-12-14T11:54:44.090Z,187.37
2017-12-14T11:56:57.544Z,294.63
2017-12-14T11:59:14.522Z,1423.27
2017-12-14T12:01:27.617Z,568.00
2017-12-14T12:03:42.652Z,492.00
2017-12-14T12:05:56.598Z,504.13
2017-12-14T12:08:15.677Z,480.97
2017-12-14T12:10:29.117Z,461.37
2017-12-14T12:12:42.092Z,426.80
2017-12-14T12:15:07.463Z,392.77
2017-12-14T12:17:17.363Z,363.60
2017-12-14T12:19:35.273Z,338.30
2017-12-14T12:21:50.468Z,300.67
2017-12-14T12:23:59.960Z,267.30
2017-12-14T12:26:14.777Z,247.67
2017-12-14T12:28:28.940Z,240.07
2017-12-14T12:30:40.648Z,220.23
2017-12-14T12:32:53.653Z,458.27
2017-12-14T12:35:11.442Z,772.80
2017-12-14T12:37:18.899Z,574.87
2017-12-14T12:39:25.428Z,695.33
2017-12-14T12:41:34.584Z,558.13
2017-12-14T12:43:45.953Z,494.80
2017-12-14T12:45:52.481Z,484.70
2017-12-14T12:48:05.527Z,462.23
2017-12-14T12:50:18.112Z,434.37
2017-12-14T12:52:29.795Z,419.70
2017-12-14T12:54:37.755Z,387.60
2017-12-14T12:56:49.746Z,362.63
2017-12-14T12:59:03.522Z,333.10
2017-12-14T13:01:32.010Z,299.93
2017-12-14T13:03:43.693Z,256.13
2017-12-14T13:05:58.171Z,244.27
2017-12-14T13:08:13.707Z,241.27
2017-12-14T13:10:34.087Z,545.20
2017-12-14T13:12:46.790Z,625.70
2017-12-14T13:14:57.454Z,566.83
2017-12-14T13:17:10.437Z,551.63
2017-12-14T13:21:52.142Z,606.33
2017-12-14T13:24:01.611Z,474.70
2017-12-14T13:26:18.394Z,431.50
2017-12-14T13:28:31.529Z,414.30
2017-12-14T13:30:50.538Z,381.40
2017-12-14T13:33:00.626Z,371.67
2017-12-14T13:35:12.405Z,347.00
2017-12-14T13:37:25.251Z,334.00
2017-12-14T13:39:32.754Z,312.53
2017-12-14T13:41:45.533Z,281.77
2017-12-14T13:43:59.104Z,268.07
2017-12-14T13:46:07.747Z,242.33
2017-12-14T13:48:20.319Z,232.17
2017-12-14T13:50:27.907Z,222.83
2017-12-14T13:52:38.485Z,200.30
2017-12-14T13:54:46.415Z,198.70
2017-12-14T13:56:54.257Z,171.20
2017-12-14T13:59:04.417Z,161.83
2017-12-14T14:01:11.948Z,157.73
2017-12-14T14:03:20.367Z,145.23
2017-12-14T14:05:29.376Z,140.00
2017-12-14T14:07:43.589Z,132.70
2017-12-14T14:09:56.054Z,114.93
2017-12-14T14:12:04.241Z,112.30
2017-12-14T14:14:11.132Z,105.23
2017-12-14T14:16:21.028Z,104.13
2017-12-14T14:18:30.687Z,92.03
2017-12-14T14:20:40.738Z,90.97
2017-12-14T14:22:51.081Z,84.80
2017-12-14T14:24:59.925Z,81.77
2017-12-14T14:27:08.734Z,72.43
2017-12-14T14:29:17.789Z,63.28
2017-12-14T14:31:29.933Z,60.40
2017-12-14T14:33:39.008Z,55.83
2017-12-14T14:35:57.931Z,51.37
2017-12-14T14:38:09.023Z,47.90
2017-12-14T14:40:16.861Z,42.07
2017-12-14T14:42:27.895Z,211.67
2017-12-14T14:44:38.729Z,344.30
2017-12-14T14:46:53.788Z,102.80
2017-12-14T14:49:02.268Z,799.80
2017-12-14T14:51:19.012Z,344.00
2017-12-14T14:53:33.288Z,615.47
2017-12-14T14:55:51.785Z,607.40
2017-12-14T14:58:03.524Z,553.00
2017-12-14T15:00:15.198Z,517.33
2017-12-14T15:02:23.495Z,483.50
2017-12-14T15:04:34.485Z,470.27
2017-12-14T15:06:42.700Z,452.37
2017-12-14T15:08:57.391Z,427.33
2017-12-14T15:11:12.783Z,414.07
2017-12-14T15:13:20.647Z,360.30
2017-12-14T15:15:39.247Z,339.70
2017-12-14T15:17:49.130Z,743.47
2017-12-14T15:20:00.640Z,759.67
2017-12-14T15:22:14.162Z,665.17
2017-12-14T15:24:28.348Z,620.67
2017-12-14T15:26:39.325Z,582.63
2017-12-14T15:29:05.895Z,552.33
2017-12-14T15:31:18.651Z,536.17
2017-12-14T15:33:29.297Z,516.03
2017-12-14T15:35:46.741Z,502.43
2017-12-14T15:38:03.498Z,482.03
2017-12-14T15:40:15.795Z,474.17
2017-12-14T15:42:26.843Z,457.80
2017-12-14T15:44:39.889Z,446.30
2017-12-14T15:46:56.140Z,428.10
2017-12-14T15:49:11.171Z,404.20
2017-12-14T15:51:24.339Z,387.97
2017-12-14T15:53:36.619Z,379.70
2017-12-14T15:55:57.399Z,359.83
2017-12-14T15:58:08.586Z,344.60
2017-12-14T16:00:21.059Z,340.63
2017-12-14T16:02:32.777Z,305.20
2017-12-14T16:04:43.972Z,294.40
2017-12-14T16:06:56.095Z,283.63
2017-12-14T16:09:05.716Z,286.43
2017-12-14T16:11:15.132Z,533.13
2017-12-14T16:13:27.757Z,682.00
2017-12-14T16:15:43.781Z,586.50
2017-12-14T16:17:55.020Z,553.80
2017-12-14T16:20:06.706Z,541.60
2017-12-14T16:22:20.747Z,517.70
2017-12-14T16:24:29.202Z,505.33
2017-12-14T16:26:37.300Z,495.20
2017-12-14T16:28:46.378Z,476.90
2017-12-14T16:30:52.935Z,467.67
2017-12-14T16:33:10.964Z,443.83
2017-12-14T16:35:24.817Z,433.60
2017-12-14T16:37:34.424Z,407.77
2017-12-14T16:39:45.858Z,390.77
2017-12-14T16:41:54.707Z,362.57
2017-12-14T16:44:04.455Z,332.50
2017-12-14T16:46:12.520Z,316.60
2017-12-14T16:48:28.937Z,307.20
2017-12-14T16:50:37.726Z,294.13
2017-12-14T16:52:48.246Z,277.20
2017-12-14T16:54:58.846Z,267.93
2017-12-14T16:57:08.066Z,259.20
2017-12-14T16:59:22.365Z,249.57
2017-12-14T17:01:30.856Z,222.07
2017-12-14T17:03:42.706Z,213.40
2017-12-14T17:05:55.516Z,210.90
2017-12-14T17:08:12.230Z,201.23
2017-12-14T17:10:23.455Z,191.53
2017-12-14T17:12:33.208Z,542.73
2017-12-14T17:14:44.075Z,943.80
2017-12-14T17:16:55.860Z,675.30
2017-12-14T17:19:06.408Z,627.43
2017-12-14T17:21:15.344Z,569.30
2017-12-14T17:23:24.694Z,539.27
2017-12-14T17:25:33.607Z,513.03
2017-12-14T17:27:51.163Z,494.30
2017-12-14T17:32:20.234Z,459.07
2017-12-14T17:34:27.269Z,457.63
2017-12-14T17:36:35.791Z,439.53
2017-12-14T17:38:45.994Z,425.50
2017-12-14T17:40:53.163Z,407.47
2017-12-14T17:43:01.892Z,387.47
2017-12-14T17:45:20.183Z,612.90
2017-12-14T17:47:28.965Z,933.47
2017-12-14T17:49:36.450Z,768.47
2017-12-14T17:51:43.526Z,734.70
2017-12-14T17:53:51.251Z,713.17
2017-12-14T17:55:58.062Z,672.13
2017-12-14T17:58:06.108Z,629.43
2017-12-14T18:00:14.710Z,601.73
2017-12-14T18:02:22.906Z,587.83
2017-12-14T18:04:35.136Z,565.53
2017-12-14T18:06:42.828Z,539.73
2017-12-14T18:08:50.976Z,527.70
2017-12-14T18:11:04.361Z,528.20
2017-12-14T18:13:13.984Z,505.27
2017-12-14T18:15:24.067Z,487.80
2017-12-14T18:17:33.375Z,478.63
2017-12-14T18:19:43.436Z,467.77
2017-12-14T18:21:53.778Z,455.50
2017-12-14T18:24:03.918Z,577.50
2017-12-14T18:26:14.799Z,522.73
2017-12-14T18:28:25.203Z,571.07
2017-12-14T18:30:35.405Z,634.67
2017-12-14T18:32:45.603Z,644.00
2017-12-14T18:34:55.561Z,615.77
2017-12-14T18:37:14.080Z,594.40
2017-12-14T18:39:27.422Z,573.73
2017-12-14T18:41:40.571Z,551.50
2017-12-14T18:43:55.813Z,532.63
2017-12-14T18:46:11.253Z,518.90
2017-12-14T18:48:24.583Z,505.10
2017-12-14T18:53:11.001Z,479.50
2017-12-14T18:55:23.481Z,467.97
2017-12-14T18:57:34.259Z,453.60
2017-12-14T18:59:47.524Z,441.43
2017-12-14T19:02:04.154Z,429.97
2017-12-14T19:04:14.054Z,410.33
2017-12-14T19:06:26.547Z,391.07
2017-12-14T19:08:42.967Z,371.07
2017-12-14T19:10:57.506Z,353.47
2017-12-14T19:13:10.454Z,351.57
2017-12-14T19:15:18.451Z,329.17
2017-12-14T19:17:37.946Z,312.60
2017-12-14T19:19:50.543Z,305.30
2017-12-14T19:22:04.624Z,285.00
2017-12-14T19:24:21.385Z,270.70
2017-12-14T19:26:34.594Z,252.37
2017-12-14T19:32:01.101Z,228.87
2017-12-14T19:34:22.976Z,228.77
2017-12-14T19:36:39.456Z,207.33
2017-12-14T19:38:57.753Z,203.90
2017-12-14T19:41:17.401Z,194.30
2017-12-14T19:43:29.179Z,427.50
2017-12-14T19:45:48.979Z,567.80
2017-12-14T19:47:58.858Z,514.00
2017-12-14T19:50:20.230Z,470.90
2017-12-14T19:55:11.734Z,464.77
2017-12-14T19:57:27.132Z,451.93
2017-12-14T20:02:12.188Z,409.50
2017-12-14T20:04:27.236Z,398.43
2017-12-14T20:06:36.551Z,381.17
2017-12-14T20:08:51.838Z,370.40
2017-12-14T20:11:08.380Z,354.80
2017-12-14T20:13:20.562Z,330.90
2017-12-14T20:15:44.102Z,318.60
2017-12-14T20:17:56.957Z,296.97
2017-12-14T20:20:18.663Z,289.23
2017-12-14T20:22:26.572Z,270.50
2017-12-14T20:24:39.101Z,260.30
2017-12-14T20:26:45.018Z,477.67
2017-12-14T20:28:54.549Z,442.03
2017-12-14T20:31:00.342Z,801.83
2017-12-14T20:33:07.061Z,751.97
2017-12-14T20:35:19.169Z,506.70
2017-12-14T20:37:26.753Z,509.77
2017-12-14T20:39:33.752Z,556.63
2017-12-14T20:41:40.242Z,478.60
2017-12-14T20:43:46.505Z,437.00
2017-12-14T20:45:57.166Z,428.53
2017-12-14T20:48:05.215Z,492.27
2017-12-14T20:50:19.155Z,461.00
2017-12-14T20:52:28.363Z,376.90
2017-12-14T20:54:36.599Z,365.37
2017-12-14T20:56:43.514Z,504.00
2017-12-14T20:58:57.694Z,342.67
2017-12-14T21:01:09.010Z,334.47
2017-12-14T21:03:16.577Z,304.67
2017-12-14T21:05:28.065Z,288.43
2017-12-14T21:07:36.185Z,280.30
2017-12-14T21:09:49.467Z,268.73
2017-12-14T21:11:59.949Z,262.20
2017-12-14T21:14:09.674Z,261.23
2017-12-14T21:16:15.629Z,226.33
2017-12-14T21:18:23.512Z,254.10
2017-12-14T21:20:30.934Z,209.93
2017-12-14T21:22:36.898Z,567.57
2017-12-14T21:24:44.432Z,198.87
2017-12-14T21:26:51.516Z,187.47
2017-12-14T21:28:57.844Z,175.77
2017-12-14T21:31:07.199Z,165.40
2017-12-14T21:33:15.275Z,159.00
2017-12-14T21:35:21.911Z,153.17
2017-12-14T21:37:28.103Z,143.00
2017-12-14T21:39:33.608Z,143.50
2017-12-14T21:41:39.052Z,132.67
2017-12-14T21:43:45.304Z,124.90
2017-12-14T21:45:51.456Z,1077.97
2017-12-14T21:47:58.983Z,687.57
2017-12-14T21:50:06.894Z,582.07
2017-12-14T21:52:13.332Z,469.60
2017-12-14T21:54:19.339Z,447.50
2017-12-14T21:56:25.492Z,460.57
2017-12-14T21:58:31.696Z,440.27
2017-12-14T22:00:38.494Z,413.53
2017-12-14T22:02:44.255Z,403.93
2017-12-14T22:04:50.627Z,363.90
2017-12-14T22:06:56.363Z,363.33
2017-12-14T22:09:04.338Z,333.47
2017-12-14T22:11:10.602Z,315.80
2017-12-14T22:13:16.307Z,312.90
2017-12-14T22:15:24.605Z,544.17
2017-12-14T22:17:32.395Z,497.00
2017-12-14T22:19:39.288Z,737.67
2017-12-14T22:21:46.540Z,302.50
2017-12-14T22:23:56.738Z,246.97
2017-12-14T22:26:03.189Z,233.43
2017-12-14T22:28:09.190Z,610.87
2017-12-14T22:30:15.448Z,356.23
2017-12-14T22:32:20.957Z,204.10
2017-12-14T22:34:28.955Z,222.97
2017-12-14T22:36:35.358Z,889.43
2017-12-14T22:38:42.684Z,183.30
2017-12-14T22:40:50.663Z,167.57
2017-12-14T22:42:56.352Z,162.50
2017-12-14T22:45:04.039Z,155.80
2017-12-14T22:47:13.516Z,140.97
2017-12-14T22:49:19.177Z,381.07
2017-12-14T22:51:26.082Z,134.53
2017-12-14T22:53:37.994Z,543.67
2017-12-14T22:55:43.764Z,925.97
2017-12-14T22:57:52.416Z,440.07
2017-12-14T23:00:04.041Z,491.60
2017-12-14T23:02:11.454Z,453.83
2017-12-14T23:04:23.532Z,459.83
2017-12-14T23:06:33.686Z,445.27
2017-12-14T23:08:40.974Z,438.57
2017-12-14T23:10:49.077Z,654.17
2017-12-14T23:12:57.200Z,474.00
2017-12-14T23:15:05.010Z,404.03
2017-12-14T23:17:12.445Z,371.30
2017-12-14T23:19:21.174Z,359.00
2017-12-14T23:21:29.080Z,323.40
2017-12-14T23:23:39.767Z,476.07
2017-12-14T23:25:48.894Z,767.87
2017-12-14T23:27:58.905Z,344.40
2017-12-14T23:30:08.148Z,308.90
2017-12-14T23:32:14.389Z,260.63
2017-12-14T23:34:22.895Z,756.80
2017-12-14T23:36:29.176Z,238.30
2017-12-14T23:38:37.460Z,239.53
2017-12-14T23:40:45.424Z,218.37
2017-12-14T23:42:52.029Z,218.37
2017-12-14T23:45:02.182Z,200.50
2017-12-14T23:47:10.421Z,186.80
2017-12-14T23:49:18.539Z,172.03
2017-12-14T23:51:31.380Z,170.03
2017-12-14T23:53:39.851Z,170.67
2017-12-14T23:55:50.093Z,1063.80
2017-12-14T23:57:57.435Z,639.30
